Time;durP1;ratioP1;P1;durP2;ratioP2;P2;SDS_P1;SDS_P2;PMS_P1;PMS_P2;Temp;Humidity;BMP_temperature;BMP_pressure;BME280_temperature;BME280_humidity;BME280_pressure;Samples;Min_cycle;Max_cycle;Signal;HPM_P1;HPM_P2
2023/01/14 00:01:39;;;;;;;;;;;;;;;;;;5092502;28;974;-41
2023/01/14 00:04:06;;;;;;;;;;;;;;;;;;5092303;28;1910;-41
2023/01/14 00:06:35;;;;;;;;;;;;;;;;;;5092260;28;1053;-40
2023/01/14 00:09:07;;;;;;;;;;;;;;;;;;5092209;28;907;-40
2023/01/14 00:11:46;;;;;;;;;;;;;;;;;;5092301;28;1075;-40
2023/01/14 00:14:15;;;;;;;;;;;;;;;;;;5092160;28;1048;-39
2023/01/14 00:16:42;;;;;;;;;;;;;;;;;;5092016;28;1198;-40
2023/01/14 00:19:09;;;;;;;;;;;;;;;;;;5092219;28;959;-39
2023/01/14 00:21:37;;;;;;;;;;;;;;;;;;5091773;28;1069;-39
2023/01/14 00:24:04;;;;;;;;;;;;;;;;;;5092043;28;1976;-40
2023/01/14 00:26:31;;;;;;;;;;;;;;;;;;5091649;28;1182;-39
2023/01/14 00:28:58;;;;;;;;;;;;;;;;;;5091932;28;923;-40
2023/01/14 00:31:27;;;;;;;;;;;;;;;;;;5091139;28;1040;-40
2023/01/14 00:33:56;;;;;;;;;;;;;;;;;;5091640;28;1328;-40
2023/01/14 00:36:24;;;;;;;;;;;;;;;;;;5091575;28;1692;-40
2023/01/14 00:38:52;;;;;;;;;;;;;;;;;;5091736;28;1161;-42
2023/01/14 00:41:25;;;;;;;;;;;;;;;;;;5091829;28;1206;-39
2023/01/14 00:43:54;;;;;;;;;;;;;;;;;;5073290;28;1902;-40
2023/01/14 00:46:28;;;;;;;;;;;;;;;;;;5091597;28;1040;-39
2023/01/14 00:48:58;;;;;;;;;;;;;;;;;;5091377;28;1082;-39
2023/01/14 00:51:25;;;;;;;;;;;;;;;;;;5073362;28;1206;-39
2023/01/14 00:53:55;;;;;;;;;;;;;;;;;;5073768;28;1026;-39
2023/01/14 00:56:23;;;;;;;;;;;;;;;;;;5073035;28;1255;-40
2023/01/14 00:58:50;;;;;;;;;;;;;;;;;;5091651;28;1064;-39
2023/01/14 01:01:18;;;;;;;;;;;;;;;;;;5091286;28;979;-39
2023/01/14 01:03:47;;;;;;;;;;;;;;;;;;5091087;28;1973;-39
2023/01/14 01:06:16;;;;;;;;;;;;;;;;;;5091256;28;1015;-39
2023/01/14 01:08:44;;;;;;;;;;;;;;;;;;5073537;28;970;-39
2023/01/14 01:11:13;;;;;;;;;;;;;;;;;;5091343;28;913;-39
2023/01/14 01:13:42;;;;;;;;;;;;;;;;;;5090906;28;1036;-39
2023/01/14 01:16:13;;;;;;;;;;;;;;;;;;5091339;28;1328;-39
2023/01/14 01:18:41;;;;;;;;;;;;;;;;;;5072913;28;1013;-38
2023/01/14 01:21:12;;;;;;;;;;;;;;;;;;5091186;28;1154;-39
2023/01/14 01:23:42;;;;;;;;;;;;;;;;;;5091042;28;1979;-39
2023/01/14 01:26:15;;;;;;;;;;;;;;;;;;5090803;28;994;-39
2023/01/14 01:28:43;;;;;;;;;;;;;;;;;;5090863;28;1397;-39
2023/01/14 01:31:12;;;;;;;;;;;;;;;;;;5090829;28;1320;-39
2023/01/14 01:33:39;;;;;;;;;;;;;;;;;;5091158;28;971;-38
2023/01/14 01:36:08;;;;;;;;;;;;;;;;;;5091022;28;912;-39
2023/01/14 01:38:36;;;;;;;;;;;;;;;;;;5090935;28;1092;-39
2023/01/14 01:41:03;;;;;;;;;;;;;;;;;;5090801;28;1199;-40
2023/01/14 01:43:31;;;;;;;;;;;;;;;;;;5074183;28;1957;-39
2023/01/14 01:45:59;;;;;;;;;;;;;;;;;;5095055;28;1133;-38
2023/01/14 01:48:27;;;;;;;;;;;;;;;;;;5094854;28;1033;-38
2023/01/14 01:51:02;;;;;;;;;;;;;;;;;;5095159;28;1008;-39
2023/01/14 01:53:31;;;;;;;;;;;;;;;;;;5094786;28;1140;-38
2023/01/14 01:55:59;;;;;;;;;;;;;;;;;;5076617;28;1211;-38
2023/01/14 01:58:26;;;;;;;;;;;;;;;;;;5094534;28;1013;-39
2023/01/14 02:00:54;;;;;;;;;;;;;;;;;;5095001;28;934;-38
2023/01/14 02:03:40;;;;;;;;;;;;;;;;;;5094707;28;1982;-39
2023/01/14 02:06:08;;;;;;;;;;;;;;;;;;5076365;28;1048;-39
2023/01/14 02:08:36;;;;;;;;;;;;;;;;;;5094566;28;1225;-38
2023/01/14 02:11:24;;;;;;;;;;;;;;;;;;5076429;28;976;-38
2023/01/14 02:13:55;;;;;;;;;;;;;;;;;;5046199;28;1179;-38
2023/01/14 02:16:23;;;;;;;;;;;;;;;;;;5094430;28;919;-38
2023/01/14 02:19:03;;;;;;;;;;;;;;;;;;5076034;28;2347;-38
2023/01/14 02:21:40;;;;;;;;;;;;;;;;;;5111667;28;1074;-38
2023/01/14 02:24:14;;;;;;;;;;;;;;;;;;5096460;28;1974;-38
2023/01/14 02:27:08;;;;;;;;;;;;;;;;;;5091653;28;1437;-37
2023/01/14 02:29:45;;;;;;;;;;;;;;;;;;5045729;28;1378;-38
2023/01/14 02:32:28;;;;;;;;;;;;;;;;;;5075760;28;1458;-38
2023/01/14 02:35:03;;;;;;;;;;;;;;;;;;5075635;28;1254;-37
2023/01/14 02:37:46;;;;;;;;;;;;;;;;;;5075681;28;1477;-38
2023/01/14 02:40:20;;;;;;;;;;;;;;;;;;5075777;28;1596;-37
2023/01/14 02:46:03;;;;;;;;;;;;;;;;;;5094031;28;932;-37
2023/01/14 02:48:31;;;;;;;;;;;;;;;;;;5075793;28;1329;-37
2023/01/14 02:50:59;;;;;;;;;;;;;;;;;;5075588;28;1702;-38
2023/01/14 02:53:27;;;;;;;;;;;;;;;;;;5075663;28;1278;-37
2023/01/14 02:55:55;;;;;;;;;;;;;;;;;;5093427;28;1271;-37
2023/01/14 02:58:41;;;;;;;;;;;;;;;;;;5075344;28;1552;-38
2023/01/14 03:01:28;;;;;;;;;;;;;;;;;;5075277;28;2179;-37
2023/01/14 03:04:10;;;;;;;;;;;;;;;;;;5075586;28;1898;-37
2023/01/14 03:06:57;;;;;;;;;;;;;;;;;;5075111;28;1258;-38
2023/01/14 03:09:29;;;;;;;;;;;;;;;;;;5075483;28;1498;-38
2023/01/14 03:11:59;;;;;;;;;;;;;;;;;;5093735;28;927;-37
2023/01/14 03:14:49;;;;;;;;;;;;;;;;;;5075171;28;1592;-38
2023/01/14 03:17:27;;;;;;;;;;;;;;;;;;5093191;28;2327;-36
2023/01/14 03:20:15;;;;;;;;;;;;;;;;;;5093209;28;964;-38
2023/01/14 03:22:43;;;;;;;;;;;;;;;;;;5074899;28;1424;-39
2023/01/14 03:25:13;;;;;;;;;;;;;;;;;;5092970;28;1906;-38
2023/01/14 03:27:43;;;;;;;;;;;;;;;;;;5087580;28;2173;-39
2023/01/14 03:30:13;;;;;;;;;;;;;;;;;;5113430;28;1028;-38
2023/01/14 03:32:50;;;;;;;;;;;;;;;;;;5113059;28;1075;-38
2023/01/14 03:35:23;;;;;;;;;;;;;;;;;;5094746;28;2350;-38
2023/01/14 03:38:10;;;;;;;;;;;;;;;;;;5113009;28;1010;-38
2023/01/14 03:40:39;;;;;;;;;;;;;;;;;;5096590;28;1343;-39
2023/01/14 03:43:26;;;;;;;;;;;;;;;;;;5113135;28;904;-38
2023/01/14 03:45:54;;;;;;;;;;;;;;;;;;5112955;28;1929;-39
2023/01/14 03:48:21;;;;;;;;;;;;;;;;;;5112956;28;907;-38
2023/01/14 03:51:15;;;;;;;;;;;;;;;;;;5113228;28;1074;-38
2023/01/14 03:53:53;;;;;;;;;;;;;;;;;;5108987;28;2451;-39
2023/01/14 03:56:36;;;;;;;;;;;;;;;;;;5112758;28;947;-39
2023/01/14 03:59:10;;;;;;;;;;;;;;;;;;5112898;28;1151;-39
2023/01/14 04:01:43;;;;;;;;;;;;;;;;;;5112862;28;1274;-38
2023/01/14 04:04:12;;;;;;;;;;;;;;;;;;5112664;28;1972;-38
2023/01/14 04:06:40;;;;;;;;;;;;;;;;;;5094641;28;1138;-39
2023/01/14 04:09:08;;;;;;;;;;;;;;;;;;5092060;28;1157;-39
2023/01/14 04:11:36;;;;;;;;;;;;;;;;;;5092349;28;1098;-38
2023/01/14 04:16:49;;;;;;;;;;;;;;;;;;5091918;28;967;-39
2023/01/14 04:19:16;;;;;;;;;;;;;;;;;;5092064;28;1071;-39
2023/01/14 04:21:43;;;;;;;;;;;;;;;;;;5092217;28;996;-38
2023/01/14 04:24:10;;;;;;;;;;;;;;;;;;5091809;28;1987;-39
2023/01/14 04:26:38;;;;;;;;;;;;;;;;;;5103963;28;1972;-39
2023/01/14 04:29:05;;;;;;;;;;;;;;;;;;5112283;28;1118;-38
2023/01/14 04:31:32;;;;;;;;;;;;;;;;;;5094103;28;1230;-39
2023/01/14 04:33:59;;;;;;;;;;;;;;;;;;5112005;28;1106;-38
2023/01/14 04:36:26;;;;;;;;;;;;;;;;;;5112152;28;1097;-39
2023/01/14 04:38:53;;;;;;;;;;;;;;;;;;5111868;28;927;-40
2023/01/14 04:44:06;;;;;;;;;;;;;;;;;;5111691;28;1968;-39
2023/01/14 04:46:34;;;;;;;;;;;;;;;;;;5112050;28;994;-38
2023/01/14 04:49:01;;;;;;;;;;;;;;;;;;5112191;28;1067;-39
2023/01/14 04:51:31;;;;;;;;;;;;;;;;;;5101014;28;933;-39
2023/01/14 04:53:58;;;;;;;;;;;;;;;;;;5090850;28;971;-41
2023/01/14 04:56:25;;;;;;;;;;;;;;;;;;5091596;28;918;-39
2023/01/14 04:58:52;;;;;;;;;;;;;;;;;;5091268;28;1001;-39
2023/01/14 05:01:19;;;;;;;;;;;;;;;;;;5091601;28;1126;-39
2023/01/14 05:03:47;;;;;;;;;;;;;;;;;;5091235;28;1911;-40
2023/01/14 05:06:14;;;;;;;;;;;;;;;;;;5110708;28;1073;-38
2023/01/14 05:08:41;;;;;;;;;;;;;;;;;;5111571;28;1216;-39
2023/01/14 05:11:09;;;;;;;;;;;;;;;;;;5111619;28;1005;-40
2023/01/14 05:13:36;;;;;;;;;;;;;;;;;;5111720;28;987;-40
2023/01/14 05:16:03;;;;;;;;;;;;;;;;;;5111709;28;1010;-40
2023/01/14 05:18:31;;;;;;;;;;;;;;;;;;5111290;28;1284;-40
2023/01/14 05:20:58;;;;;;;;;;;;;;;;;;5111501;28;1088;-39
2023/01/14 05:23:25;;;;;;;;;;;;;;;;;;5111456;28;932;-39
2023/01/14 05:25:52;;;;;;;;;;;;;;;;;;5111179;28;1914;-40
2023/01/14 05:28:19;;;;;;;;;;;;;;;;;;5095804;28;1158;-37
2023/01/14 05:30:47;;;;;;;;;;;;;;;;;;5091261;28;1244;-39
2023/01/14 05:33:14;;;;;;;;;;;;;;;;;;5072870;28;1438;-39
2023/01/14 05:35:42;;;;;;;;;;;;;;;;;;5072619;28;1307;-39
2023/01/14 05:38:10;;;;;;;;;;;;;;;;;;5090762;28;973;-39
2023/01/14 05:40:37;;;;;;;;;;;;;;;;;;5072956;28;1361;-40
2023/01/14 05:45:51;;;;;;;;;;;;;;;;;;5090326;28;1912;-40
2023/01/14 05:48:20;;;;;;;;;;;;;;;;;;5090867;28;1019;-40
2023/01/14 05:50:51;;;;;;;;;;;;;;;;;;5090204;28;1131;-39
2023/01/14 05:53:19;;;;;;;;;;;;;;;;;;5090873;28;1195;-38
2023/01/14 05:55:46;;;;;;;;;;;;;;;;;;5090799;28;1162;-40
2023/01/14 05:58:14;;;;;;;;;;;;;;;;;;5090122;28;1210;-39
2023/01/14 06:06:21;;;;;;;;;;;;;;;;;;5090734;28;1967;-40
2023/01/14 06:08:53;;;;;;;;;;;;;;;;;;5090264;28;936;-40
2023/01/14 06:11:21;;;;;;;;;;;;;;;;;;5090256;28;994;-40
2023/01/14 06:13:49;;;;;;;;;;;;;;;;;;5090199;28;904;-40
2023/01/14 06:16:17;;;;;;;;;;;;;;;;;;5090438;28;1038;-40
2023/01/14 06:18:44;;;;;;;;;;;;;;;;;;5090157;28;1055;-40
2023/01/14 06:21:16;;;;;;;;;;;;;;;;;;5090606;28;949;-40
2023/01/14 06:23:43;;;;;;;;;;;;;;;;;;5090673;28;1059;-39
2023/01/14 06:26:17;;;;;;;;;;;;;;;;;;5089971;28;1975;-40
2023/01/14 06:28:45;;;;;;;;;;;;;;;;;;5094429;28;1272;-39
2023/01/14 06:31:13;;;;;;;;;;;;;;;;;;5098448;28;1198;-39
2023/01/14 06:33:40;;;;;;;;;;;;;;;;;;5094078;28;1078;-39
2023/01/14 06:36:08;;;;;;;;;;;;;;;;;;5094213;28;1159;-38
2023/01/14 06:38:36;;;;;;;;;;;;;;;;;;5093596;28;1148;-40
2023/01/14 06:41:04;;;;;;;;;;;;;;;;;;5093833;28;974;-40
2023/01/14 06:43:32;;;;;;;;;;;;;;;;;;5093737;28;1238;-38
2023/01/14 06:45:59;;;;;;;;;;;;;;;;;;5093213;28;1930;-39
2023/01/14 06:48:26;;;;;;;;;;;;;;;;;;5093651;28;1077;-40
2023/01/14 06:50:54;;;;;;;;;;;;;;;;;;5093760;28;1072;-40
2023/01/14 06:53:22;;;;;;;;;;;;;;;;;;5093107;28;1006;-39
2023/01/14 06:55:49;;;;;;;;;;;;;;;;;;5093616;28;1168;-39
2023/01/14 06:58:16;;;;;;;;;;;;;;;;;;5075204;28;1330;-41
2023/01/14 07:00:43;;;;;;;;;;;;;;;;;;5093300;28;1125;-40
2023/01/14 07:03:11;;;;;;;;;;;;;;;;;;5093906;28;1226;-39
2023/01/14 07:05:38;;;;;;;;;;;;;;;;;;5074335;28;1975;-39
2023/01/14 07:08:05;;;;;;;;;;;;;;;;;;5093529;28;1075;-39
2023/01/14 07:10:32;;;;;;;;;;;;;;;;;;5093554;28;976;-39
2023/01/14 07:12:59;;;;;;;;;;;;;;;;;;5093574;28;905;-39
2023/01/14 07:15:27;;;;;;;;;;;;;;;;;;5093178;28;930;-43
2023/01/14 07:17:54;;;;;;;;;;;;;;;;;;5093293;28;1099;-39
2023/01/14 07:20:21;;;;;;;;;;;;;;;;;;5093350;28;1067;-39
2023/01/14 07:22:48;;;;;;;;;;;;;;;;;;5093154;28;1149;-39
2023/01/14 07:25:16;;;;;;;;;;;;;;;;;;5093163;28;1909;-40
2023/01/14 07:27:43;;;;;;;;;;;;;;;;;;5093197;28;1120;-39
2023/01/14 07:30:11;;;;;;;;;;;;;;;;;;5093255;28;1102;-40
2023/01/14 07:32:38;;;;;;;;;;;;;;;;;;5092854;28;1345;-39
2023/01/14 07:35:05;;;;;;;;;;;;;;;;;;5092777;28;1142;-39
2023/01/14 07:37:32;;;;;;;;;;;;;;;;;;5092327;28;1076;-39
2023/01/14 07:39:59;;;;;;;;;;;;;;;;;;5092665;28;1037;-40
2023/01/14 07:42:27;;;;;;;;;;;;;;;;;;5092955;28;1051;-39
2023/01/14 07:44:54;;;;;;;;;;;;;;;;;;5092738;28;1909;-39
2023/01/14 07:47:21;;;;;;;;;;;;;;;;;;5092720;28;1200;-39
2023/01/14 07:49:48;;;;;;;;;;;;;;;;;;5092510;28;1182;-40
2023/01/14 07:52:17;;;;;;;;;;;;;;;;;;5092811;28;974;-40
2023/01/14 07:54:44;;;;;;;;;;;;;;;;;;5074680;28;1183;-40
2023/01/14 07:57:12;;;;;;;;;;;;;;;;;;5092516;28;991;-39
2023/01/14 07:59:39;;;;;;;;;;;;;;;;;;5092510;28;914;-39
2023/01/14 08:02:10;;;;;;;;;;;;;;;;;;5092309;28;1084;-39
2023/01/14 08:04:37;;;;;;;;;;;;;;;;;;5092379;28;1906;-39
2023/01/14 08:07:05;;;;;;;;;;;;;;;;;;5092368;28;1030;-38
2023/01/14 08:09:33;;;;;;;;;;;;;;;;;;5092302;28;900;-40
2023/01/14 08:12:00;;;;;;;;;;;;;;;;;;5092352;28;1005;-40
2023/01/14 08:14:27;;;;;;;;;;;;;;;;;;5092042;28;924;-39
2023/01/14 08:16:54;;;;;;;;;;;;;;;;;;5092142;28;1026;-40
2023/01/14 08:19:22;;;;;;;;;;;;;;;;;;5091939;28;1161;-40
2023/01/14 08:21:49;;;;;;;;;;;;;;;;;;5092188;28;1229;-40
2023/01/14 08:24:16;;;;;;;;;;;;;;;;;;5092312;28;1057;-40
2023/01/14 08:26:43;;;;;;;;;;;;;;;;;;5091890;28;1976;-40
2023/01/14 08:29:10;;;;;;;;;;;;;;;;;;5091837;28;911;-40
2023/01/14 08:31:40;;;;;;;;;;;;;;;;;;5091664;28;1424;-40
2023/01/14 08:34:07;;;;;;;;;;;;;;;;;;5091915;28;1097;-40
2023/01/14 08:36:34;;;;;;;;;;;;;;;;;;5091795;28;1000;-39
2023/01/14 08:39:02;;;;;;;;;;;;;;;;;;5091637;28;912;-40
2023/01/14 08:41:29;;;;;;;;;;;;;;;;;;5091823;28;1104;-38
2023/01/14 08:43:56;;;;;;;;;;;;;;;;;;5091439;28;1182;-39
2023/01/14 08:46:24;;;;;;;;;;;;;;;;;;5091769;28;1905;-39
2023/01/14 08:48:51;;;;;;;;;;;;;;;;;;5091664;28;1225;-40
2023/01/14 08:51:18;;;;;;;;;;;;;;;;;;5073825;28;914;-39
2023/01/14 08:53:45;;;;;;;;;;;;;;;;;;5091382;28;1151;-40
2023/01/14 08:56:15;;;;;;;;;;;;;;;;;;5091375;28;1003;-40
2023/01/14 08:58:43;;;;;;;;;;;;;;;;;;5091263;28;1222;-40
2023/01/14 09:01:10;;;;;;;;;;;;;;;;;;5091323;28;892;-39
2023/01/14 09:03:38;;;;;;;;;;;;;;;;;;5091504;28;987;-41
2023/01/14 09:06:07;;;;;;;;;;;;;;;;;;5106559;28;1977;-40
2023/01/14 09:17:04;;;;;;;;;;;;;;;;;;5111544;28;1145;-40
2023/01/14 09:19:36;;;;;;;;;;;;;;;;;;5109396;28;1011;-39
2023/01/14 09:22:04;;;;;;;;;;;;;;;;;;5091251;28;991;-39
2023/01/14 09:24:31;;;;;;;;;;;;;;;;;;5091118;28;998;-39
2023/01/14 09:26:58;;;;;;;;;;;;;;;;;;5097639;28;1906;-40
2023/01/14 09:29:26;;;;;;;;;;;;;;;;;;5111374;28;1017;-40
2023/01/14 09:31:53;;;;;;;;;;;;;;;;;;5110870;28;1198;-40
2023/01/14 09:34:20;;;;;;;;;;;;;;;;;;5111682;28;1055;-40
2023/01/14 09:36:49;;;;;;;;;;;;;;;;;;5111572;28;958;-41
2023/01/14 09:39:17;;;;;;;;;;;;;;;;;;5111229;28;991;-40
2023/01/14 09:41:51;;;;;;;;;;;;;;;;;;5107467;28;940;-39
2023/01/14 09:44:19;;;;;;;;;;;;;;;;;;5090949;28;1079;-40
2023/01/14 09:46:46;;;;;;;;;;;;;;;;;;5090957;28;1926;-40
2023/01/14 09:49:16;;;;;;;;;;;;;;;;;;5090873;28;1049;-40
2023/01/14 09:51:55;;;;;;;;;;;;;;;;;;5057696;28;9705;-40
2023/01/14 09:54:35;;;;;;;;;;;;;;;;;;5050849;28;1151;-40
2023/01/14 09:57:07;;;;;;;;;;;;;;;;;;5050599;28;1147;-40
2023/01/14 09:59:39;;;;;;;;;;;;;;;;;;5050464;28;1016;-40
2023/01/14 10:02:34;;;;;;;;;;;;;;;;;;5050595;28;1154;-40
2023/01/14 10:05:20;;;;;;;;;;;;;;;;;;5052295;28;1044;-40
2023/01/14 10:07:47;;;;;;;;;;;;;;;;;;5054396;28;946;-40
2023/01/14 10:10:24;;;;;;;;;;;;;;;;;;5052298;28;979;-39
2023/01/14 10:12:53;;;;;;;;;;;;;;;;;;5062960;28;1281;-40
2023/01/14 10:15:29;;;;;;;;;;;;;;;;;;5074343;28;1075;-39
2023/01/14 10:18:03;;;;;;;;;;;;;;;;;;5058108;28;1108;-39
2023/01/14 10:20:47;;;;;;;;;;;;;;;;;;5073796;28;1314;-40
2023/01/14 10:23:17;;;;;;;;;;;;;;;;;;5063566;28;1020;-39
2023/01/14 10:25:48;;;;;;;;;;;;;;;;;;5070037;28;1987;-39
2023/01/14 10:28:18;;;;;;;;;;;;;;;;;;5071040;28;1136;-39
2023/01/14 10:30:46;;;;;;;;;;;;;;;;;;5057459;28;1479;-41
2023/01/14 10:33:15;;;;;;;;;;;;;;;;;;5053055;28;1175;-40
2023/01/14 10:35:43;;;;;;;;;;;;;;;;;;5053887;28;1230;-40
2023/01/14 10:38:15;;;;;;;;;;;;;;;;;;5053412;28;895;-40
2023/01/14 10:40:42;;;;;;;;;;;;;;;;;;5053434;28;989;-40
2023/01/14 10:43:18;;;;;;;;;;;;;;;;;;5053718;28;1338;-38
2023/01/14 10:45:45;;;;;;;;;;;;;;;;;;5034981;28;1975;-41
2023/01/14 10:48:17;;;;;;;;;;;;;;;;;;5053507;28;1310;-41
2023/01/14 10:50:44;;;;;;;;;;;;;;;;;;5053459;28;1063;-40
2023/01/14 10:53:19;;;;;;;;;;;;;;;;;;5053561;28;957;-41
2023/01/14 10:55:48;;;;;;;;;;;;;;;;;;5053546;28;1037;-40
2023/01/14 10:58:17;;;;;;;;;;;;;;;;;;5053379;28;1013;-40
2023/01/14 11:00:44;;;;;;;;;;;;;;;;;;5052710;28;1287;-40
2023/01/14 11:03:28;;;;;;;;;;;;;;;;;;5053245;28;1001;-41
2023/01/14 11:06:06;;;;;;;;;;;;;;;;;;5053131;28;1902;-41
2023/01/14 11:08:35;;;;;;;;;;;;;;;;;;5053194;28;996;-40
2023/01/14 11:11:06;;;;;;;;;;;;;;;;;;5053109;28;1167;-40
2023/01/14 11:13:41;;;;;;;;;;;;;;;;;;5053326;28;992;-42
2023/01/14 11:16:30;;;;;;;;;;;;;;;;;;5040553;28;1156;-41
2023/01/14 11:18:57;;;;;;;;;;;;;;;;;;5073145;28;1238;-40
2023/01/14 11:21:25;;;;;;;;;;;;;;;;;;5073115;28;972;-41
2023/01/14 11:23:57;;;;;;;;;;;;;;;;;;5073298;28;1005;-41
2023/01/14 11:26:24;;;;;;;;;;;;;;;;;;5071007;28;1905;-41
2023/01/14 11:28:52;;;;;;;;;;;;;;;;;;5052907;28;1069;-40
2023/01/14 11:31:30;;;;;;;;;;;;;;;;;;5052769;28;1224;-40
2023/01/14 11:33:58;;;;;;;;;;;;;;;;;;5052890;28;1039;-41
2023/01/14 11:36:27;;;;;;;;;;;;;;;;;;5034901;28;1467;-40
2023/01/14 11:38:56;;;;;;;;;;;;;;;;;;5052495;28;1284;-40
2023/01/14 11:41:31;;;;;;;;;;;;;;;;;;5052789;28;1228;-40
2023/01/14 11:44:16;;;;;;;;;;;;;;;;;;5052368;28;1087;-40
2023/01/14 11:46:45;;;;;;;;;;;;;;;;;;5052493;28;1910;-40
2023/01/14 11:49:12;;;;;;;;;;;;;;;;;;5052351;28;1023;-40
2023/01/14 11:51:40;;;;;;;;;;;;;;;;;;5052658;28;1138;-39
2023/01/14 11:54:15;;;;;;;;;;;;;;;;;;5052377;28;1324;-40
2023/01/14 11:56:43;;;;;;;;;;;;;;;;;;5052497;28;979;-40
2023/01/14 11:59:30;;;;;;;;;;;;;;;;;;5052301;28;913;-41
2023/01/14 12:02:09;;;;;;;;;;;;;;;;;;5052390;28;1169;-40
2023/01/14 12:04:58;;;;;;;;;;;;;;;;;;5052220;28;993;-40
2023/01/14 12:07:28;;;;;;;;;;;;;;;;;;5052388;28;1979;-41
2023/01/14 12:09:57;;;;;;;;;;;;;;;;;;5052318;28;1079;-41
2023/01/14 12:12:25;;;;;;;;;;;;;;;;;;5052049;28;1384;-40
2023/01/14 12:17:50;;;;;;;;;;;;;;;;;;5051890;28;897;-40
2023/01/14 12:20:20;;;;;;;;;;;;;;;;;;5052076;28;1080;-41
2023/01/14 12:23:09;;;;;;;;;;;;;;;;;;5051819;28;998;-38
2023/01/14 12:25:47;;;;;;;;;;;;;;;;;;5033854;28;1280;-41
2023/01/14 12:28:29;;;;;;;;;;;;;;;;;;5068137;28;1231;-40
2023/01/14 12:31:05;;;;;;;;;;;;;;;;;;5055199;28;1257;-39
2023/01/14 12:33:37;;;;;;;;;;;;;;;;;;5070175;28;1316;-40
2023/01/14 12:36:04;;;;;;;;;;;;;;;;;;5070614;28;1072;-42
2023/01/14 12:47:00;;;;;;;;;;;;;;;;;;5064903;28;1906;-40
2023/01/14 12:49:27;;;;;;;;;;;;;;;;;;5051498;28;1028;-41
2023/01/14 12:51:55;;;;;;;;;;;;;;;;;;5049854;28;997;-39
2023/01/14 12:54:29;;;;;;;;;;;;;;;;;;5051194;28;1105;-44
2023/01/14 12:56:58;;;;;;;;;;;;;;;;;;5051153;28;965;-40
2023/01/14 12:59:36;;;;;;;;;;;;;;;;;;5051351;28;1340;-40
2023/01/14 13:02:09;;;;;;;;;;;;;;;;;;5055855;28;1012;-40
2023/01/14 13:04:46;;;;;;;;;;;;;;;;;;5071066;28;1018;-40
2023/01/14 13:07:26;;;;;;;;;;;;;;;;;;5067926;28;1914;-40
2023/01/14 13:09:55;;;;;;;;;;;;;;;;;;5071220;28;1197;-41
2023/01/14 13:12:25;;;;;;;;;;;;;;;;;;5071064;28;1132;-41
2023/01/14 13:15:00;;;;;;;;;;;;;;;;;;5070997;28;2003;-39
2023/01/14 13:17:32;;;;;;;;;;;;;;;;;;5071049;28;1969;-39
2023/01/14 13:20:05;;;;;;;;;;;;;;;;;;5071264;28;1890;-39
2023/01/14 13:22:43;;;;;;;;;;;;;;;;;;5071152;28;1933;-40
2023/01/14 13:25:15;;;;;;;;;;;;;;;;;;5070829;28;1911;-40
2023/01/14 13:27:46;;;;;;;;;;;;;;;;;;5070979;28;1910;-41
2023/01/14 13:30:16;;;;;;;;;;;;;;;;;;5070872;28;2266;-40
2023/01/14 13:32:53;;;;;;;;;;;;;;;;;;5070852;28;1610;-39
2023/01/14 13:35:21;;;;;;;;;;;;;;;;;;5070869;28;2111;-40
2023/01/14 13:37:51;;;;;;;;;;;;;;;;;;5070997;28;1624;-40
2023/01/14 13:40:31;;;;;;;;;;;;;;;;;;5075043;28;2051;-40
2023/01/14 13:43:06;;;;;;;;;;;;;;;;;;5074962;28;1900;-40
2023/01/14 13:45:34;;;;;;;;;;;;;;;;;;5075067;28;2056;-40
2023/01/14 13:48:22;;;;;;;;;;;;;;;;;;5074852;28;1977;-39
2023/01/14 13:50:50;;;;;;;;;;;;;;;;;;5074726;28;1825;-40
2023/01/14 13:53:18;;;;;;;;;;;;;;;;;;5074877;28;1848;-40
2023/01/14 13:55:50;;;;;;;;;;;;;;;;;;5074491;28;2293;-40
2023/01/14 13:58:41;;;;;;;;;;;;;;;;;;5074639;28;1382;-40
2023/01/14 14:01:43;;;;;;;;;;;;;;;;;;5064172;28;1536;-39
2023/01/14 14:04:11;;;;;;;;;;;;;;;;;;5056617;28;1909;-38
2023/01/14 14:06:39;;;;;;;;;;;;;;;;;;5074528;28;2123;-39
2023/01/14 14:09:16;;;;;;;;;;;;;;;;;;5074312;28;2114;-39
2023/01/14 14:12:02;;;;;;;;;;;;;;;;;;5074489;28;1183;-40
2023/01/14 14:14:38;;;;;;;;;;;;;;;;;;5054137;28;1703;-39
2023/01/14 14:17:35;;;;;;;;;;;;;;;;;;5054427;28;1944;-40
2023/01/14 14:20:03;;;;;;;;;;;;;;;;;;5037523;28;1849;-40
2023/01/14 14:22:45;;;;;;;;;;;;;;;;;;5054073;28;1444;-40
2023/01/14 14:25:21;;;;;;;;;;;;;;;;;;5054042;28;1547;-40
2023/01/14 14:27:49;;;;;;;;;;;;;;;;;;5066954;28;1959;-39
2023/01/14 14:30:16;;;;;;;;;;;;;;;;;;5073925;28;2100;-40
2023/01/14 14:32:58;;;;;;;;;;;;;;;;;;5073712;28;2266;-39
2023/01/14 14:35:25;;;;;;;;;;;;;;;;;;5073933;28;1968;-40
2023/01/14 14:37:54;;;;;;;;;;;;;;;;;;5073713;28;1440;-40
2023/01/14 14:40:25;;;;;;;;;;;;;;;;;;5073787;28;2003;-40
2023/01/14 14:42:53;;;;;;;;;;;;;;;;;;5073809;28;1751;-40
2023/01/14 14:45:31;;;;;;;;;;;;;;;;;;5073744;28;2034;-39
2023/01/14 14:47:59;;;;;;;;;;;;;;;;;;5073618;28;1965;-40
2023/01/14 14:50:33;;;;;;;;;;;;;;;;;;5072730;28;2020;-40
2023/01/14 14:53:01;;;;;;;;;;;;;;;;;;5073426;28;1603;-40
2023/01/14 14:55:47;;;;;;;;;;;;;;;;;;5073467;28;2146;-39
2023/01/14 14:58:15;;;;;;;;;;;;;;;;;;5073411;28;1802;-41
2023/01/14 15:00:43;;;;;;;;;;;;;;;;;;5073210;28;1874;-42
2023/01/14 15:03:16;;;;;;;;;;;;;;;;;;5073440;28;1915;-40
2023/01/14 15:05:44;;;;;;;;;;;;;;;;;;5063388;28;1706;-40
2023/01/14 15:08:14;;;;;;;;;;;;;;;;;;5053289;28;1970;-41
2023/01/14 15:10:45;;;;;;;;;;;;;;;;;;5053175;28;1976;-40
2023/01/14 15:13:38;;;;;;;;;;;;;;;;;;5035466;28;1840;-39
2023/01/14 15:16:05;;;;;;;;;;;;;;;;;;5050003;28;1686;-40
2023/01/14 15:18:34;;;;;;;;;;;;;;;;;;5052979;28;1842;-40
2023/01/14 15:21:02;;;;;;;;;;;;;;;;;;5052922;28;1626;-39
2023/01/14 15:23:30;;;;;;;;;;;;;;;;;;5053076;28;1833;-41
2023/01/14 15:25:59;;;;;;;;;;;;;;;;;;5035007;28;1830;-40
2023/01/14 15:28:28;;;;;;;;;;;;;;;;;;5071473;28;1914;-39
2023/01/14 15:30:57;;;;;;;;;;;;;;;;;;5072769;28;1606;-40
2023/01/14 15:33:28;;;;;;;;;;;;;;;;;;5072458;28;2322;-42
2023/01/14 15:35:58;;;;;;;;;;;;;;;;;;5045636;28;1666;-40
2023/01/14 15:38:26;;;;;;;;;;;;;;;;;;5052193;28;2135;-40
2023/01/14 15:40:53;;;;;;;;;;;;;;;;;;5057896;28;2285;-39
2023/01/14 15:43:20;;;;;;;;;;;;;;;;;;5058401;28;2298;-40
2023/01/14 15:45:48;;;;;;;;;;;;;;;;;;5064504;28;2018;-40
2023/01/14 15:48:16;;;;;;;;;;;;;;;;;;5063062;28;1924;-39
2023/01/14 15:50:52;;;;;;;;;;;;;;;;;;5065452;28;2118;-39
2023/01/14 15:53:26;;;;;;;;;;;;;;;;;;5072259;28;1943;-40
2023/01/14 15:56:15;;;;;;;;;;;;;;;;;;5072299;28;1631;-40
2023/01/14 15:58:55;;;;;;;;;;;;;;;;;;5072458;28;1847;-38
2023/01/14 16:01:24;;;;;;;;;;;;;;;;;;5071400;28;1480;-40
2023/01/14 16:03:52;;;;;;;;;;;;;;;;;;5071757;28;1776;-39
2023/01/14 16:06:25;;;;;;;;;;;;;;;;;;5072006;28;2134;-39
2023/01/14 16:08:54;;;;;;;;;;;;;;;;;;5071257;28;1913;-39
2023/01/14 16:11:22;;;;;;;;;;;;;;;;;;5070975;28;1997;-40
2023/01/14 16:13:50;;;;;;;;;;;;;;;;;;5051978;28;1716;-40
2023/01/14 16:16:22;;;;;;;;;;;;;;;;;;5051991;28;1665;-40
2023/01/14 16:18:52;;;;;;;;;;;;;;;;;;5053027;28;1457;-37
2023/01/14 16:21:19;;;;;;;;;;;;;;;;;;5062669;28;1633;-37
2023/01/14 16:23:46;;;;;;;;;;;;;;;;;;5071850;28;2086;-39
2023/01/14 16:26:17;;;;;;;;;;;;;;;;;;5071346;28;1548;-39
2023/01/14 16:28:47;;;;;;;;;;;;;;;;;;5033170;28;2099;-38
2023/01/14 16:31:14;;;;;;;;;;;;;;;;;;5051772;28;1821;-40
2023/01/14 16:33:41;;;;;;;;;;;;;;;;;;5051048;28;1975;-39
2023/01/14 16:36:12;;;;;;;;;;;;;;;;;;5051634;28;1781;-40
2023/01/14 16:38:40;;;;;;;;;;;;;;;;;;5051415;28;1345;-41
2023/01/14 16:41:07;;;;;;;;;;;;;;;;;;5051223;28;2158;-40
2023/01/14 16:43:35;;;;;;;;;;;;;;;;;;5051502;28;1836;-39
2023/01/14 16:46:04;;;;;;;;;;;;;;;;;;5051353;28;1826;-40
2023/01/14 16:48:31;;;;;;;;;;;;;;;;;;5051284;28;1896;-39
2023/01/14 16:51:06;;;;;;;;;;;;;;;;;;5051415;28;1492;-39
2023/01/14 16:53:34;;;;;;;;;;;;;;;;;;5051001;28;2023;-39
2023/01/14 16:56:02;;;;;;;;;;;;;;;;;;5052140;28;1952;-37
2023/01/14 16:58:41;;;;;;;;;;;;;;;;;;5058990;28;1896;-40
2023/01/14 17:01:08;;;;;;;;;;;;;;;;;;5051163;28;1744;-40
2023/01/14 17:03:36;;;;;;;;;;;;;;;;;;5050999;28;1923;-39
2023/01/14 17:06:04;;;;;;;;;;;;;;;;;;5050912;28;1819;-40
2023/01/14 17:08:31;;;;;;;;;;;;;;;;;;5051052;28;1917;-39
2023/01/14 17:10:59;;;;;;;;;;;;;;;;;;5051187;28;2272;-40
2023/01/14 17:13:26;;;;;;;;;;;;;;;;;;5050630;28;1617;-39
2023/01/14 17:16:00;;;;;;;;;;;;;;;;;;5054613;28;2210;-41
2023/01/14 17:18:28;;;;;;;;;;;;;;;;;;5056029;28;1417;-39
2023/01/14 17:20:55;;;;;;;;;;;;;;;;;;5050901;28;2119;-40
2023/01/14 17:23:22;;;;;;;;;;;;;;;;;;5051049;28;1697;-39
2023/01/14 17:25:50;;;;;;;;;;;;;;;;;;5050909;28;1685;-40
2023/01/14 17:28:17;;;;;;;;;;;;;;;;;;5050804;28;1989;-40
2023/01/14 17:30:44;;;;;;;;;;;;;;;;;;5050862;28;2002;-39
2023/01/14 17:33:14;;;;;;;;;;;;;;;;;;5050528;28;1786;-40
2023/01/14 17:35:45;;;;;;;;;;;;;;;;;;5050862;28;1446;-40
2023/01/14 17:38:12;;;;;;;;;;;;;;;;;;5050830;28;1915;-39
2023/01/14 17:40:39;;;;;;;;;;;;;;;;;;5050737;28;1797;-39
2023/01/14 17:43:07;;;;;;;;;;;;;;;;;;5050600;28;1756;-40
2023/01/14 17:45:37;;;;;;;;;;;;;;;;;;5050393;28;1786;-40
2023/01/14 17:48:04;;;;;;;;;;;;;;;;;;5050434;28;1957;-40
2023/01/14 17:50:31;;;;;;;;;;;;;;;;;;5050677;28;1833;-40
2023/01/14 17:52:58;;;;;;;;;;;;;;;;;;5050548;28;1815;-39
2023/01/14 17:55:25;;;;;;;;;;;;;;;;;;5032975;28;1319;-40
2023/01/14 17:57:53;;;;;;;;;;;;;;;;;;5049649;28;1936;-40
2023/01/14 18:00:20;;;;;;;;;;;;;;;;;;5048799;28;1925;-39
2023/01/14 18:02:47;;;;;;;;;;;;;;;;;;5048704;28;1846;-39
2023/01/14 18:05:16;;;;;;;;;;;;;;;;;;5048474;28;1936;-39
2023/01/14 18:07:46;;;;;;;;;;;;;;;;;;5048587;28;1981;-39